sensor_id;sensor_type;location;lat;lon;timestamp;P1;durP1;ratioP1;P2;durP2;ratioP2
22103;SDS011;11218;48.886;9.426;2023-05-02T00:02:07;48.13;;;13.57;;
22103;SDS011;11218;48.886;9.426;2023-05-02T00:04:36;36.42;;;11.25;;
22103;SDS011;11218;48.886;9.426;2023-05-02T00:07:06;39.95;;;11.70;;
22103;SDS011;11218;48.886;9.426;2023-05-02T00:09:33;52.88;;;14.13;;
22103;SDS011;11218;48.886;9.426;2023-05-02T00:12:02;50.30;;;14.50;;
22103;SDS011;11218;48.886;9.426;2023-05-02T00:14:30;45.85;;;12.63;;
22103;SDS011;11218;48.886;9.426;2023-05-02T00:16:58;43.30;;;12.90;;
22103;SDS011;11218;48.886;9.426;2023-05-02T00:19:26;41.90;;;11.95;;
22103;SDS011;11218;48.886;9.426;2023-05-02T00:21:54;39.05;;;12.27;;
22103;SDS011;11218;48.886;9.426;2023-05-02T00:24:24;57.70;;;14.95;;
22103;SDS011;11218;48.886;9.426;2023-05-02T00:26:52;55.10;;;14.73;;
22103;SDS011;11218;48.886;9.426;2023-05-02T00:29:20;63.55;;;15.80;;
22103;SDS011;11218;48.886;9.426;2023-05-02T00:31:48;47.45;;;13.23;;
22103;SDS011;11218;48.886;9.426;2023-05-02T00:34:15;50.88;;;13.23;;
22103;SDS011;11218;48.886;9.426;2023-05-02T00:36:44;38.58;;;11.27;;
22103;SDS011;11218;48.886;9.426;2023-05-02T00:39:12;53.95;;;14.77;;
22103;SDS011;11218;48.886;9.426;2023-05-02T00:41:41;42.58;;;12.45;;
22103;SDS011;11218;48.886;9.426;2023-05-02T00:44:09;46.30;;;12.65;;
22103;SDS011;11218;48.886;9.426;2023-05-02T00:46:37;40.95;;;12.02;;
22103;SDS011;11218;48.886;9.426;2023-05-02T00:49:05;33.80;;;10.57;;
22103;SDS011;11218;48.886;9.426;2023-05-02T00:51:33;41.95;;;12.27;;
22103;SDS011;11218;48.886;9.426;2023-05-02T00:54:01;45.25;;;13.00;;
22103;SDS011;11218;48.886;9.426;2023-05-02T00:56:30;41.35;;;11.82;;
22103;SDS011;11218;48.886;9.426;2023-05-02T00:59:00;44.97;;;12.02;;
22103;SDS011;11218;48.886;9.426;2023-05-02T01:01:30;40.13;;;11.40;;
22103;SDS011;11218;48.886;9.426;2023-05-02T01:04:10;32.17;;;10.32;;
22103;SDS011;11218;48.886;9.426;2023-05-02T01:06:52;46.40;;;13.02;;
22103;SDS011;11218;48.886;9.426;2023-05-02T01:09:38;51.70;;;14.38;;
22103;SDS011;11218;48.886;9.426;2023-05-02T01:12:18;43.63;;;11.73;;
22103;SDS011;11218;48.886;9.426;2023-05-02T01:14:55;35.83;;;10.93;;
22103;SDS011;11218;48.886;9.426;2023-05-02T01:17:26;46.67;;;12.45;;
22103;SDS011;11218;48.886;9.426;2023-05-02T01:19:58;29.35;;;8.85;;
22103;SDS011;11218;48.886;9.426;2023-05-02T01:22:31;43.00;;;11.52;;
22103;SDS011;11218;48.886;9.426;2023-05-02T01:25:03;35.20;;;10.85;;
22103;SDS011;11218;48.886;9.426;2023-05-02T01:27:38;33.22;;;10.38;;
22103;SDS011;11218;48.886;9.426;2023-05-02T01:30:11;39.35;;;11.02;;
22103;SDS011;11218;48.886;9.426;2023-05-02T01:32:41;45.05;;;11.93;;
22103;SDS011;11218;48.886;9.426;2023-05-02T01:35:13;43.03;;;11.15;;
22103;SDS011;11218;48.886;9.426;2023-05-02T01:37:43;49.63;;;13.32;;
22103;SDS011;11218;48.886;9.426;2023-05-02T01:40:14;47.33;;;12.25;;
22103;SDS011;11218;48.886;9.426;2023-05-02T01:42:45;48.10;;;13.00;;
22103;SDS011;11218;48.886;9.426;2023-05-02T01:45:16;51.47;;;13.88;;
22103;SDS011;11218;48.886;9.426;2023-05-02T01:47:47;37.33;;;11.88;;
22103;SDS011;11218;48.886;9.426;2023-05-02T01:50:18;45.45;;;12.65;;
22103;SDS011;11218;48.886;9.426;2023-05-02T01:52:50;44.50;;;12.20;;
22103;SDS011;11218;48.886;9.426;2023-05-02T01:55:19;50.70;;;13.68;;
22103;SDS011;11218;48.886;9.426;2023-05-02T01:57:48;33.92;;;10.32;;
22103;SDS011;11218;48.886;9.426;2023-05-02T02:00:21;45.25;;;12.00;;
22103;SDS011;11218;48.886;9.426;2023-05-02T02:02:51;39.95;;;11.98;;
22103;SDS011;11218;48.886;9.426;2023-05-02T02:05:22;46.42;;;13.20;;
22103;SDS011;11218;48.886;9.426;2023-05-02T02:07:52;41.42;;;12.07;;
22103;SDS011;11218;48.886;9.426;2023-05-02T02:10:21;39.10;;;12.30;;
22103;SDS011;11218;48.886;9.426;2023-05-02T02:12:55;47.67;;;13.35;;
22103;SDS011;11218;48.886;9.426;2023-05-02T02:15:29;66.63;;;16.55;;
22103;SDS011;11218;48.886;9.426;2023-05-02T02:18:03;44.42;;;12.48;;
22103;SDS011;11218;48.886;9.426;2023-05-02T02:20:36;46.47;;;14.30;;
22103;SDS011;11218;48.886;9.426;2023-05-02T02:23:06;42.83;;;13.32;;
22103;SDS011;11218;48.886;9.426;2023-05-02T02:25:35;40.97;;;12.77;;
22103;SDS011;11218;48.886;9.426;2023-05-02T02:28:05;39.60;;;12.18;;
22103;SDS011;11218;48.886;9.426;2023-05-02T02:30:35;43.60;;;13.02;;
22103;SDS011;11218;48.886;9.426;2023-05-02T02:33:03;35.55;;;11.18;;
22103;SDS011;11218;48.886;9.426;2023-05-02T02:35:33;47.90;;;13.32;;
22103;SDS011;11218;48.886;9.426;2023-05-02T02:38:07;52.08;;;14.25;;
22103;SDS011;11218;48.886;9.426;2023-05-02T02:40:43;42.85;;;12.45;;
22103;SDS011;11218;48.886;9.426;2023-05-02T02:43:17;41.13;;;12.52;;
22103;SDS011;11218;48.886;9.426;2023-05-02T02:45:54;49.10;;;13.70;;
22103;SDS011;11218;48.886;9.426;2023-05-02T02:48:31;44.83;;;12.50;;
22103;SDS011;11218;48.886;9.426;2023-05-02T02:51:05;38.92;;;11.95;;
22103;SDS011;11218;48.886;9.426;2023-05-02T02:53:42;44.50;;;12.52;;
22103;SDS011;11218;48.886;9.426;2023-05-02T02:56:20;49.15;;;13.73;;
22103;SDS011;11218;48.886;9.426;2023-05-02T02:58:54;49.15;;;13.80;;
22103;SDS011;11218;48.886;9.426;2023-05-02T03:01:29;48.78;;;13.68;;
22103;SDS011;11218;48.886;9.426;2023-05-02T03:03:59;40.58;;;11.75;;
22103;SDS011;11218;48.886;9.426;2023-05-02T03:06:30;50.25;;;13.95;;
22103;SDS011;11218;48.886;9.426;2023-05-02T03:08:58;47.67;;;13.77;;
22103;SDS011;11218;48.886;9.426;2023-05-02T03:11:27;56.47;;;14.82;;
22103;SDS011;11218;48.886;9.426;2023-05-02T03:13:55;48.63;;;13.57;;
22103;SDS011;11218;48.886;9.426;2023-05-02T03:19:08;54.10;;;14.32;;
22103;SDS011;11218;48.886;9.426;2023-05-02T03:21:36;50.83;;;14.15;;
22103;SDS011;11218;48.886;9.426;2023-05-02T03:24:04;32.92;;;10.63;;
22103;SDS011;11218;48.886;9.426;2023-05-02T03:26:32;46.90;;;13.38;;
22103;SDS011;11218;48.886;9.426;2023-05-02T03:29:01;39.17;;;11.98;;
22103;SDS011;11218;48.886;9.426;2023-05-02T03:31:29;52.55;;;14.73;;
22103;SDS011;11218;48.886;9.426;2023-05-02T03:33:59;48.67;;;13.90;;
22103;SDS011;11218;48.886;9.426;2023-05-02T03:36:27;53.78;;;15.85;;
22103;SDS011;11218;48.886;9.426;2023-05-02T03:38:55;42.38;;;12.95;;
22103;SDS011;11218;48.886;9.426;2023-05-02T03:41:23;55.65;;;15.27;;
22103;SDS011;11218;48.886;9.426;2023-05-02T03:43:51;47.95;;;13.27;;
22103;SDS011;11218;48.886;9.426;2023-05-02T03:46:19;42.80;;;12.88;;
22103;SDS011;11218;48.886;9.426;2023-05-02T03:48:47;47.22;;;14.52;;
22103;SDS011;11218;48.886;9.426;2023-05-02T03:51:17;40.38;;;12.98;;
22103;SDS011;11218;48.886;9.426;2023-05-02T03:53:45;51.10;;;14.57;;
22103;SDS011;11218;48.886;9.426;2023-05-02T03:56:15;48.38;;;13.93;;
22103;SDS011;11218;48.886;9.426;2023-05-02T03:58:45;47.00;;;13.88;;
22103;SDS011;11218;48.886;9.426;2023-05-02T04:01:14;49.28;;;14.95;;
22103;SDS011;11218;48.886;9.426;2023-05-02T04:03:43;53.72;;;15.23;;
22103;SDS011;11218;48.886;9.426;2023-05-02T04:06:12;39.58;;;12.30;;
22103;SDS011;11218;48.886;9.426;2023-05-02T04:08:42;45.30;;;13.32;;
22103;SDS011;11218;48.886;9.426;2023-05-02T04:11:10;47.80;;;14.15;;
22103;SDS011;11218;48.886;9.426;2023-05-02T04:13:38;46.92;;;14.30;;
22103;SDS011;11218;48.886;9.426;2023-05-02T04:16:06;46.35;;;14.55;;
22103;SDS011;11218;48.886;9.426;2023-05-02T04:18:35;46.15;;;13.55;;
22103;SDS011;11218;48.886;9.426;2023-05-02T04:21:03;53.70;;;15.32;;
22103;SDS011;11218;48.886;9.426;2023-05-02T04:23:31;54.53;;;16.00;;
22103;SDS011;11218;48.886;9.426;2023-05-02T04:26:01;70.13;;;17.67;;
22103;SDS011;11218;48.886;9.426;2023-05-02T04:28:28;71.80;;;19.13;;
22103;SDS011;11218;48.886;9.426;2023-05-02T04:30:56;57.65;;;17.08;;
22103;SDS011;11218;48.886;9.426;2023-05-02T04:33:25;62.42;;;17.30;;
22103;SDS011;11218;48.886;9.426;2023-05-02T04:35:53;63.22;;;18.35;;
22103;SDS011;11218;48.886;9.426;2023-05-02T04:38:22;56.33;;;16.02;;
22103;SDS011;11218;48.886;9.426;2023-05-02T04:40:50;54.35;;;16.63;;
22103;SDS011;11218;48.886;9.426;2023-05-02T04:43:19;59.05;;;15.98;;
22103;SDS011;11218;48.886;9.426;2023-05-02T04:45:50;61.28;;;16.13;;
22103;SDS011;11218;48.886;9.426;2023-05-02T04:48:18;54.80;;;15.80;;
22103;SDS011;11218;48.886;9.426;2023-05-02T04:50:48;62.50;;;16.77;;
22103;SDS011;11218;48.886;9.426;2023-05-02T04:53:16;57.25;;;15.73;;
22103;SDS011;11218;48.886;9.426;2023-05-02T04:55:44;55.60;;;16.52;;
22103;SDS011;11218;48.886;9.426;2023-05-02T04:58:12;55.20;;;15.50;;
22103;SDS011;11218;48.886;9.426;2023-05-02T05:00:42;69.68;;;18.27;;
22103;SDS011;11218;48.886;9.426;2023-05-02T05:03:10;46.88;;;15.52;;
22103;SDS011;11218;48.886;9.426;2023-05-02T05:05:38;48.50;;;14.18;;
22103;SDS011;11218;48.886;9.426;2023-05-02T05:08:07;69.55;;;18.38;;
22103;SDS011;11218;48.886;9.426;2023-05-02T05:10:35;69.25;;;18.40;;
22103;SDS011;11218;48.886;9.426;2023-05-02T05:13:05;57.97;;;17.40;;
22103;SDS011;11218;48.886;9.426;2023-05-02T05:15:34;58.70;;;16.50;;
22103;SDS011;11218;48.886;9.426;2023-05-02T05:18:03;58.83;;;17.02;;
22103;SDS011;11218;48.886;9.426;2023-05-02T05:20:31;66.78;;;18.55;;
22103;SDS011;11218;48.886;9.426;2023-05-02T05:23:00;65.10;;;16.50;;
22103;SDS011;11218;48.886;9.426;2023-05-02T05:25:28;66.78;;;17.55;;
22103;SDS011;11218;48.886;9.426;2023-05-02T05:27:55;28.35;;;10.02;;
22103;SDS011;11218;48.886;9.426;2023-05-02T05:30:24;27.33;;;9.27;;
22103;SDS011;11218;48.886;9.426;2023-05-02T05:32:52;44.42;;;13.57;;
22103;SDS011;11218;48.886;9.426;2023-05-02T05:35:22;36.17;;;11.50;;
22103;SDS011;11218;48.886;9.426;2023-05-02T05:37:50;37.88;;;11.65;;
22103;SDS011;11218;48.886;9.426;2023-05-02T05:40:19;35.67;;;11.95;;
22103;SDS011;11218;48.886;9.426;2023-05-02T05:42:48;22.08;;;9.52;;
22103;SDS011;11218;48.886;9.426;2023-05-02T05:45:16;37.85;;;11.85;;
22103;SDS011;11218;48.886;9.426;2023-05-02T05:47:45;39.90;;;11.98;;
22103;SDS011;11218;48.886;9.426;2023-05-02T05:50:13;29.23;;;10.70;;
22103;SDS011;11218;48.886;9.426;2023-05-02T05:52:42;38.72;;;13.13;;
22103;SDS011;11218;48.886;9.426;2023-05-02T05:55:10;45.53;;;13.32;;
22103;SDS011;11218;48.886;9.426;2023-05-02T05:57:38;40.97;;;13.48;;
22103;SDS011;11218;48.886;9.426;2023-05-02T06:00:07;41.63;;;14.38;;
22103;SDS011;11218;48.886;9.426;2023-05-02T06:02:36;48.40;;;15.02;;
22103;SDS011;11218;48.886;9.426;2023-05-02T06:05:04;54.67;;;16.58;;
22103;SDS011;11218;48.886;9.426;2023-05-02T06:07:33;72.85;;;20.63;;
22103;SDS011;11218;48.886;9.426;2023-05-02T06:10:03;48.30;;;15.68;;
22103;SDS011;11218;48.886;9.426;2023-05-02T06:12:31;53.92;;;16.85;;
22103;SDS011;11218;48.886;9.426;2023-05-02T06:14:59;38.78;;;12.38;;
22103;SDS011;11218;48.886;9.426;2023-05-02T06:17:27;42.40;;;13.48;;
22103;SDS011;11218;48.886;9.426;2023-05-02T06:19:56;46.17;;;14.07;;
22103;SDS011;11218;48.886;9.426;2023-05-02T06:22:24;51.97;;;15.45;;
22103;SDS011;11218;48.886;9.426;2023-05-02T06:24:52;40.65;;;13.95;;
22103;SDS011;11218;48.886;9.426;2023-05-02T06:27:22;42.97;;;13.23;;
22103;SDS011;11218;48.886;9.426;2023-05-02T06:29:50;26.30;;;10.98;;
22103;SDS011;11218;48.886;9.426;2023-05-02T06:32:18;45.80;;;14.55;;
22103;SDS011;11218;48.886;9.426;2023-05-02T06:34:46;35.47;;;13.07;;
22103;SDS011;11218;48.886;9.426;2023-05-02T06:37:15;37.67;;;13.98;;
22103;SDS011;11218;48.886;9.426;2023-05-02T06:39:43;136.40;;;31.92;;
22103;SDS011;11218;48.886;9.426;2023-05-02T06:42:10;40.30;;;14.65;;
22103;SDS011;11218;48.886;9.426;2023-05-02T06:44:40;57.22;;;17.45;;
22103;SDS011;11218;48.886;9.426;2023-05-02T06:47:08;42.58;;;14.00;;
22103;SDS011;11218;48.886;9.426;2023-05-02T06:49:36;33.17;;;12.57;;
22103;SDS011;11218;48.886;9.426;2023-05-02T06:52:04;39.85;;;13.63;;
22103;SDS011;11218;48.886;9.426;2023-05-02T06:54:32;44.47;;;14.85;;
22103;SDS011;11218;48.886;9.426;2023-05-02T06:57:00;34.38;;;12.20;;
22103;SDS011;11218;48.886;9.426;2023-05-02T06:59:28;33.03;;;12.63;;
22103;SDS011;11218;48.886;9.426;2023-05-02T07:01:57;47.97;;;16.50;;
22103;SDS011;11218;48.886;9.426;2023-05-02T07:04:27;40.83;;;14.55;;
22103;SDS011;11218;48.886;9.426;2023-05-02T07:06:55;54.53;;;17.27;;
22103;SDS011;11218;48.886;9.426;2023-05-02T07:09:23;47.97;;;15.70;;
22103;SDS011;11218;48.886;9.426;2023-05-02T07:11:52;39.53;;;12.90;;
22103;SDS011;11218;48.886;9.426;2023-05-02T07:14:20;42.25;;;13.68;;
22103;SDS011;11218;48.886;9.426;2023-05-02T07:16:48;54.15;;;17.80;;
22103;SDS011;11218;48.886;9.426;2023-05-02T07:19:18;62.90;;;20.77;;
22103;SDS011;11218;48.886;9.426;2023-05-02T07:21:46;51.38;;;17.27;;
22103;SDS011;11218;48.886;9.426;2023-05-02T07:24:15;64.72;;;19.60;;
22103;SDS011;11218;48.886;9.426;2023-05-02T07:26:43;59.22;;;19.75;;
22103;SDS011;11218;48.886;9.426;2023-05-02T07:29:12;59.05;;;19.20;;
22103;SDS011;11218;48.886;9.426;2023-05-02T07:31:40;78.40;;;23.42;;
22103;SDS011;11218;48.886;9.426;2023-05-02T07:34:08;65.88;;;21.60;;
22103;SDS011;11218;48.886;9.426;2023-05-02T07:36:38;61.35;;;19.95;;
22103;SDS011;11218;48.886;9.426;2023-05-02T07:39:06;72.18;;;22.70;;
22103;SDS011;11218;48.886;9.426;2023-05-02T07:41:34;69.70;;;22.98;;
22103;SDS011;11218;48.886;9.426;2023-05-02T07:44:02;46.65;;;18.75;;
22103;SDS011;11218;48.886;9.426;2023-05-02T07:46:30;49.38;;;18.83;;
22103;SDS011;11218;48.886;9.426;2023-05-02T07:48:58;48.08;;;19.73;;
22103;SDS011;11218;48.886;9.426;2023-05-02T07:51:26;38.63;;;18.05;;
22103;SDS011;11218;48.886;9.426;2023-05-02T07:53:55;48.67;;;20.25;;
22103;SDS011;11218;48.886;9.426;2023-05-02T07:56:24;50.92;;;18.80;;
22103;SDS011;11218;48.886;9.426;2023-05-02T07:58:52;66.75;;;24.20;;
22103;SDS011;11218;48.886;9.426;2023-05-02T08:01:20;68.05;;;24.52;;
22103;SDS011;11218;48.886;9.426;2023-05-02T08:03:49;79.00;;;25.27;;
22103;SDS011;11218;48.886;9.426;2023-05-02T08:06:18;66.43;;;23.33;;
22103;SDS011;11218;48.886;9.426;2023-05-02T08:08:46;78.60;;;27.15;;
22103;SDS011;11218;48.886;9.426;2023-05-02T08:11:15;67.85;;;24.73;;
22103;SDS011;11218;48.886;9.426;2023-05-02T08:13:43;77.63;;;25.65;;
22103;SDS011;11218;48.886;9.426;2023-05-02T08:16:12;66.45;;;24.83;;
22103;SDS011;11218;48.886;9.426;2023-05-02T08:18:40;76.05;;;25.52;;
22103;SDS011;11218;48.886;9.426;2023-05-02T08:21:08;77.38;;;25.98;;
22103;SDS011;11218;48.886;9.426;2023-05-02T08:23:36;73.20;;;26.83;;
22103;SDS011;11218;48.886;9.426;2023-05-02T08:26:05;82.50;;;26.38;;
22103;SDS011;11218;48.886;9.426;2023-05-02T08:28:34;73.30;;;26.02;;
22103;SDS011;11218;48.886;9.426;2023-05-02T08:31:02;91.72;;;30.77;;
22103;SDS011;11218;48.886;9.426;2023-05-02T08:33:30;73.35;;;26.88;;
22103;SDS011;11218;48.886;9.426;2023-05-02T08:35:58;74.65;;;26.42;;
22103;SDS011;11218;48.886;9.426;2023-05-02T08:38:26;78.07;;;26.15;;
22103;SDS011;11218;48.886;9.426;2023-05-02T08:40:54;67.03;;;25.83;;
22103;SDS011;11218;48.886;9.426;2023-05-02T08:43:22;72.05;;;26.65;;
22103;SDS011;11218;48.886;9.426;2023-05-02T08:45:52;90.72;;;29.27;;
22103;SDS011;11218;48.886;9.426;2023-05-02T08:48:23;69.13;;;25.23;;
22103;SDS011;11218;48.886;9.426;2023-05-02T08:50:51;87.55;;;29.75;;
22103;SDS011;11218;48.886;9.426;2023-05-02T08:53:21;88.60;;;29.85;;
22103;SDS011;11218;48.886;9.426;2023-05-02T08:55:51;86.03;;;29.10;;
22103;SDS011;11218;48.886;9.426;2023-05-02T08:58:21;70.68;;;25.20;;
22103;SDS011;11218;48.886;9.426;2023-05-02T09:00:50;84.50;;;27.83;;
22103;SDS011;11218;48.886;9.426;2023-05-02T09:03:29;63.22;;;23.85;;
22103;SDS011;11218;48.886;9.426;2023-05-02T09:06:02;60.30;;;23.20;;
22103;SDS011;11218;48.886;9.426;2023-05-02T09:08:32;48.20;;;19.77;;
22103;SDS011;11218;48.886;9.426;2023-05-02T09:11:01;51.67;;;21.15;;
22103;SDS011;11218;48.886;9.426;2023-05-02T09:13:30;58.97;;;24.58;;
22103;SDS011;11218;48.886;9.426;2023-05-02T09:16:02;61.65;;;25.95;;
22103;SDS011;11218;48.886;9.426;2023-05-02T09:18:32;64.20;;;25.48;;
22103;SDS011;11218;48.886;9.426;2023-05-02T09:21:03;56.40;;;22.30;;
22103;SDS011;11218;48.886;9.426;2023-05-02T09:23:35;52.92;;;20.77;;
22103;SDS011;11218;48.886;9.426;2023-05-02T09:26:12;69.15;;;25.65;;
22103;SDS011;11218;48.886;9.426;2023-05-02T09:28:44;79.65;;;25.83;;
22103;SDS011;11218;48.886;9.426;2023-05-02T09:31:16;65.03;;;24.52;;
22103;SDS011;11218;48.886;9.426;2023-05-02T09:34:07;43.33;;;19.23;;
22103;SDS011;11218;48.886;9.426;2023-05-02T09:36:39;59.13;;;23.70;;
22103;SDS011;11218;48.886;9.426;2023-05-02T09:39:09;63.00;;;24.63;;
22103;SDS011;11218;48.886;9.426;2023-05-02T09:41:40;51.03;;;21.80;;
22103;SDS011;11218;48.886;9.426;2023-05-02T09:44:08;54.25;;;21.23;;
22103;SDS011;11218;48.886;9.426;2023-05-02T09:46:51;64.28;;;25.88;;
22103;SDS011;11218;48.886;9.426;2023-05-02T09:49:37;59.28;;;23.33;;
22103;SDS011;11218;48.886;9.426;2023-05-02T09:52:09;65.88;;;26.27;;
22103;SDS011;11218;48.886;9.426;2023-05-02T09:54:38;58.92;;;23.42;;
22103;SDS011;11218;48.886;9.426;2023-05-02T09:57:07;46.92;;;21.55;;
22103;SDS011;11218;48.886;9.426;2023-05-02T09:59:37;47.65;;;21.08;;
22103;SDS011;11218;48.886;9.426;2023-05-02T10:02:07;60.95;;;22.88;;
22103;SDS011;11218;48.886;9.426;2023-05-02T10:04:37;58.08;;;23.27;;
22103;SDS011;11218;48.886;9.426;2023-05-02T10:07:07;50.83;;;21.83;;
22103;SDS011;11218;48.886;9.426;2023-05-02T10:09:36;63.88;;;24.80;;
22103;SDS011;11218;48.886;9.426;2023-05-02T10:12:10;59.70;;;23.77;;
22103;SDS011;11218;48.886;9.426;2023-05-02T10:14:43;58.28;;;23.27;;
22103;SDS011;11218;48.886;9.426;2023-05-02T10:17:19;57.05;;;23.35;;
22103;SDS011;11218;48.886;9.426;2023-05-02T10:19:50;52.58;;;20.77;;
22103;SDS011;11218;48.886;9.426;2023-05-02T10:22:23;41.30;;;20.55;;
22103;SDS011;11218;48.886;9.426;2023-05-02T10:24:52;52.25;;;21.83;;
22103;SDS011;11218;48.886;9.426;2023-05-02T10:27:20;58.63;;;23.65;;
22103;SDS011;11218;48.886;9.426;2023-05-02T10:29:48;57.05;;;24.38;;
22103;SDS011;11218;48.886;9.426;2023-05-02T10:32:21;51.83;;;21.40;;
22103;SDS011;11218;48.886;9.426;2023-05-02T10:34:50;69.78;;;26.08;;
22103;SDS011;11218;48.886;9.426;2023-05-02T10:37:19;52.58;;;21.27;;
22103;SDS011;11218;48.886;9.426;2023-05-02T10:39:47;52.08;;;22.70;;
22103;SDS011;11218;48.886;9.426;2023-05-02T10:42:16;61.15;;;22.98;;
22103;SDS011;11218;48.886;9.426;2023-05-02T10:44:47;73.13;;;25.17;;
22103;SDS011;11218;48.886;9.426;2023-05-02T10:47:17;58.83;;;23.77;;
22103;SDS011;11218;48.886;9.426;2023-05-02T10:49:52;74.00;;;26.08;;
22103;SDS011;11218;48.886;9.426;2023-05-02T10:52:25;60.20;;;22.48;;
22103;SDS011;11218;48.886;9.426;2023-05-02T10:55:14;63.67;;;24.42;;
22103;SDS011;11218;48.886;9.426;2023-05-02T11:00:49;55.85;;;22.58;;
22103;SDS011;11218;48.886;9.426;2023-05-02T11:06:24;56.00;;;22.10;;
22103;SDS011;11218;48.886;9.426;2023-05-02T11:08:53;55.03;;;21.02;;
22103;SDS011;11218;48.886;9.426;2023-05-02T11:11:55;44.65;;;18.70;;
22103;SDS011;11218;48.886;9.426;2023-05-02T11:17:16;55.88;;;22.15;;
22103;SDS011;11218;48.886;9.426;2023-05-02T11:22:59;63.42;;;23.90;;
22103;SDS011;11218;48.886;9.426;2023-05-02T11:25:48;57.83;;;21.55;;
22103;SDS011;11218;48.886;9.426;2023-05-02T11:34:21;56.03;;;21.75;;
22103;SDS011;11218;48.886;9.426;2023-05-02T11:36:49;78.28;;;25.55;;
22103;SDS011;11218;48.886;9.426;2023-05-02T11:39:19;63.15;;;23.02;;
22103;SDS011;11218;48.886;9.426;2023-05-02T11:41:48;69.45;;;23.08;;
22103;SDS011;11218;48.886;9.426;2023-05-02T11:44:16;61.95;;;23.70;;
22103;SDS011;11218;48.886;9.426;2023-05-02T11:46:44;47.33;;;20.42;;
22103;SDS011;11218;48.886;9.426;2023-05-02T11:49:12;67.03;;;24.77;;
22103;SDS011;11218;48.886;9.426;2023-05-02T11:51:41;66.93;;;24.73;;
22103;SDS011;11218;48.886;9.426;2023-05-02T11:54:16;88.90;;;29.88;;
22103;SDS011;11218;48.886;9.426;2023-05-02T11:56:47;85.85;;;29.33;;
22103;SDS011;11218;48.886;9.426;2023-05-02T11:59:15;89.97;;;31.70;;
22103;SDS011;11218;48.886;9.426;2023-05-02T12:01:46;83.90;;;27.63;;
22103;SDS011;11218;48.886;9.426;2023-05-02T12:04:15;75.10;;;26.42;;
22103;SDS011;11218;48.886;9.426;2023-05-02T12:06:53;92.85;;;29.27;;
22103;SDS011;11218;48.886;9.426;2023-05-02T12:09:23;92.88;;;29.83;;
22103;SDS011;11218;48.886;9.426;2023-05-02T12:11:51;96.97;;;30.35;;
22103;SDS011;11218;48.886;9.426;2023-05-02T12:14:26;65.65;;;24.38;;
22103;SDS011;11218;48.886;9.426;2023-05-02T12:16:56;78.85;;;28.75;;
22103;SDS011;11218;48.886;9.426;2023-05-02T12:19:25;54.30;;;23.52;;
22103;SDS011;11218;48.886;9.426;2023-05-02T12:21:54;59.13;;;25.20;;
22103;SDS011;11218;48.886;9.426;2023-05-02T12:24:24;89.32;;;30.92;;
22103;SDS011;11218;48.886;9.426;2023-05-02T12:27:07;108.10;;;36.10;;
22103;SDS011;11218;48.886;9.426;2023-05-02T12:29:36;104.07;;;34.53;;
22103;SDS011;11218;48.886;9.426;2023-05-02T12:32:05;104.45;;;35.83;;
22103;SDS011;11218;48.886;9.426;2023-05-02T12:34:34;91.47;;;31.60;;
22103;SDS011;11218;48.886;9.426;2023-05-02T12:37:03;116.55;;;37.88;;
22103;SDS011;11218;48.886;9.426;2023-05-02T12:39:36;90.93;;;33.20;;
22103;SDS011;11218;48.886;9.426;2023-05-02T12:42:08;109.47;;;37.88;;
22103;SDS011;11218;48.886;9.426;2023-05-02T12:44:37;93.70;;;33.92;;
22103;SDS011;11218;48.886;9.426;2023-05-02T12:47:06;89.75;;;34.42;;
22103;SDS011;11218;48.886;9.426;2023-05-02T12:49:47;98.85;;;36.20;;
22103;SDS011;11218;48.886;9.426;2023-05-02T12:52:17;101.53;;;37.22;;
22103;SDS011;11218;48.886;9.426;2023-05-02T12:54:47;122.68;;;42.38;;
22103;SDS011;11218;48.886;9.426;2023-05-02T12:57:21;97.07;;;37.13;;
22103;SDS011;11218;48.886;9.426;2023-05-02T12:59:51;97.32;;;36.50;;
22103;SDS011;11218;48.886;9.426;2023-05-02T13:02:20;99.88;;;36.67;;
22103;SDS011;11218;48.886;9.426;2023-05-02T13:04:48;107.05;;;37.90;;
22103;SDS011;11218;48.886;9.426;2023-05-02T13:07:16;81.38;;;34.47;;
22103;SDS011;11218;48.886;9.426;2023-05-02T13:09:44;81.22;;;33.47;;
22103;SDS011;11218;48.886;9.426;2023-05-02T13:12:14;80.60;;;32.75;;
22103;SDS011;11218;48.886;9.426;2023-05-02T13:14:43;84.80;;;33.03;;
22103;SDS011;11218;48.886;9.426;2023-05-02T13:17:11;68.68;;;29.38;;
22103;SDS011;11218;48.886;9.426;2023-05-02T13:19:40;76.80;;;30.08;;
22103;SDS011;11218;48.886;9.426;2023-05-02T13:22:19;75.15;;;28.77;;
22103;SDS011;11218;48.886;9.426;2023-05-02T13:24:47;61.67;;;25.98;;
22103;SDS011;11218;48.886;9.426;2023-05-02T13:27:17;58.42;;;24.95;;
22103;SDS011;11218;48.886;9.426;2023-05-02T13:29:45;58.22;;;23.55;;
22103;SDS011;11218;48.886;9.426;2023-05-02T13:32:15;66.38;;;24.20;;
22103;SDS011;11218;48.886;9.426;2023-05-02T13:34:43;55.00;;;21.88;;
22103;SDS011;11218;48.886;9.426;2023-05-02T13:37:12;53.95;;;20.25;;
22103;SDS011;11218;48.886;9.426;2023-05-02T13:39:40;61.83;;;22.48;;
22103;SDS011;11218;48.886;9.426;2023-05-02T13:42:08;56.88;;;21.08;;
22103;SDS011;11218;48.886;9.426;2023-05-02T13:44:37;68.93;;;23.63;;
22103;SDS011;11218;48.886;9.426;2023-05-02T13:47:05;64.05;;;22.58;;
22103;SDS011;11218;48.886;9.426;2023-05-02T13:49:33;47.35;;;19.63;;
22103;SDS011;11218;48.886;9.426;2023-05-02T13:52:01;51.95;;;21.23;;
22103;SDS011;11218;48.886;9.426;2023-05-02T13:54:31;59.20;;;21.50;;
22103;SDS011;11218;48.886;9.426;2023-05-02T13:56:59;65.10;;;23.05;;
22103;SDS011;11218;48.886;9.426;2023-05-02T13:59:28;61.22;;;22.17;;
22103;SDS011;11218;48.886;9.426;2023-05-02T14:01:57;50.92;;;20.58;;
22103;SDS011;11218;48.886;9.426;2023-05-02T14:04:26;52.25;;;19.85;;
22103;SDS011;11218;48.886;9.426;2023-05-02T14:06:54;45.58;;;18.65;;
22103;SDS011;11218;48.886;9.426;2023-05-02T14:09:22;53.25;;;19.88;;
22103;SDS011;11218;48.886;9.426;2023-05-02T14:11:50;51.45;;;19.35;;
22103;SDS011;11218;48.886;9.426;2023-05-02T14:14:18;54.15;;;20.10;;
22103;SDS011;11218;48.886;9.426;2023-05-02T14:16:46;49.80;;;18.35;;
22103;SDS011;11218;48.886;9.426;2023-05-02T14:19:17;61.65;;;21.23;;
22103;SDS011;11218;48.886;9.426;2023-05-02T14:21:45;49.78;;;17.27;;
22103;SDS011;11218;48.886;9.426;2023-05-02T14:24:13;60.58;;;20.25;;
22103;SDS011;11218;48.886;9.426;2023-05-02T14:26:41;59.67;;;21.25;;
22103;SDS011;11218;48.886;9.426;2023-05-02T14:29:09;75.43;;;22.38;;
22103;SDS011;11218;48.886;9.426;2023-05-02T14:31:37;54.22;;;16.05;;
22103;SDS011;11218;48.886;9.426;2023-05-02T14:34:05;60.38;;;16.77;;
22103;SDS011;11218;48.886;9.426;2023-05-02T14:36:36;50.47;;;15.77;;
22103;SDS011;11218;48.886;9.426;2023-05-02T14:39:04;60.53;;;17.98;;
22103;SDS011;11218;48.886;9.426;2023-05-02T14:41:32;62.10;;;18.48;;
22103;SDS011;11218;48.886;9.426;2023-05-02T14:44:01;86.85;;;22.88;;
22103;SDS011;11218;48.886;9.426;2023-05-02T14:46:29;53.97;;;16.63;;
22103;SDS011;11218;48.886;9.426;2023-05-02T14:48:57;75.07;;;20.83;;
22103;SDS011;11218;48.886;9.426;2023-05-02T14:51:25;66.93;;;21.08;;
22103;SDS011;11218;48.886;9.426;2023-05-02T14:53:55;50.38;;;17.60;;
22103;SDS011;11218;48.886;9.426;2023-05-02T14:56:23;65.72;;;20.58;;
22103;SDS011;11218;48.886;9.426;2023-05-02T14:58:51;52.65;;;16.10;;